createdAt,value
2023-05-28T00:00:24.986Z,3.80
2023-05-28T00:02:51.458Z,3.75
2023-05-28T00:05:17.967Z,3.70
2023-05-28T00:07:44.574Z,3.95
2023-05-28T00:10:11.545Z,3.90
2023-05-28T00:12:37.983Z,3.80
2023-05-28T00:15:05.109Z,3.75
2023-05-28T00:17:31.586Z,4.50
2023-05-28T00:19:58.187Z,4.57
2023-05-28T00:22:25.129Z,4.28
2023-05-28T00:24:51.635Z,4.88
2023-05-28T00:27:18.325Z,5.45
2023-05-28T00:29:44.784Z,4.95
2023-05-28T00:32:11.320Z,4.78
2023-05-28T00:34:37.756Z,5.20
2023-05-28T00:37:04.634Z,5.22
2023-05-28T00:39:31.127Z,5.50
2023-05-28T00:42:03.154Z,5.28
2023-05-28T00:44:32.678Z,5.25
2023-05-28T00:47:00.536Z,5.45
2023-05-28T00:49:27.394Z,5.70
2023-05-28T00:51:56.144Z,5.15
2023-05-28T00:54:24.513Z,4.97
2023-05-28T00:56:53.875Z,4.85
2023-05-28T00:59:21.432Z,5.55
2023-05-28T01:01:48.424Z,5.40
2023-05-28T01:04:14.940Z,5.70
2023-05-28T01:06:43.233Z,5.05
2023-05-28T01:09:10.419Z,5.20
2023-05-28T01:11:37.854Z,5.10
2023-05-28T01:14:04.872Z,5.07
2023-05-28T01:16:31.300Z,5.35
2023-05-28T01:18:58.794Z,6.00
2023-05-28T01:21:29.162Z,5.65
2023-05-28T01:23:58.570Z,4.78
2023-05-28T01:26:26.176Z,5.80
2023-05-28T01:28:52.820Z,5.27
2023-05-28T01:31:19.472Z,5.47
2023-05-28T01:33:46.690Z,5.82
2023-05-28T01:36:19.043Z,6.25
2023-05-28T01:38:48.531Z,5.90
2023-05-28T01:41:16.127Z,5.60
2023-05-28T01:43:44.139Z,5.87
2023-05-28T01:46:11.241Z,6.43
2023-05-28T01:48:38.547Z,5.75
2023-05-28T01:51:05.507Z,5.80
2023-05-28T01:53:33.096Z,6.28
2023-05-28T01:55:59.709Z,6.67
2023-05-28T01:58:26.426Z,6.18
2023-05-28T02:01:06.298Z,5.90
2023-05-28T02:03:32.808Z,5.78
2023-05-28T02:05:59.240Z,5.80
2023-05-28T02:08:26.083Z,6.15
2023-05-28T02:10:53.401Z,5.55
2023-05-28T02:13:19.880Z,6.15
2023-05-28T02:15:46.873Z,6.47
2023-05-28T02:18:13.658Z,6.18
2023-05-28T02:20:40.212Z,6.00
2023-05-28T02:23:06.680Z,5.93
2023-05-28T02:25:33.122Z,6.28
2023-05-28T02:27:59.747Z,6.18
2023-05-28T02:30:26.276Z,5.50
2023-05-28T02:32:52.899Z,5.97
2023-05-28T02:35:20.946Z,5.68
2023-05-28T02:37:47.362Z,5.20
2023-05-28T02:40:14.429Z,5.28
2023-05-28T02:42:40.998Z,5.50
2023-05-28T02:45:07.770Z,5.88
2023-05-28T02:47:34.564Z,5.85
2023-05-28T02:50:01.170Z,5.35
2023-05-28T02:52:27.596Z,6.07
2023-05-28T02:54:54.060Z,6.28
2023-05-28T02:57:22.239Z,5.75
2023-05-28T02:59:49.286Z,6.15
2023-05-28T03:02:15.882Z,4.93
2023-05-28T03:04:42.275Z,5.80
2023-05-28T03:07:08.692Z,6.05
2023-05-28T03:09:37.707Z,6.18
2023-05-28T03:12:04.488Z,6.60
2023-05-28T03:14:31.551Z,5.88
2023-05-28T03:16:58.190Z,6.50
2023-05-28T03:19:24.670Z,5.72
2023-05-28T03:21:51.330Z,5.78
2023-05-28T03:24:18.005Z,5.80
2023-05-28T03:26:45.231Z,5.88
2023-05-28T03:29:11.762Z,6.50
2023-05-28T03:31:48.419Z,5.60
2023-05-28T03:34:15.604Z,6.03
2023-05-28T03:36:42.131Z,5.25
2023-05-28T03:39:09.509Z,6.30
2023-05-28T03:41:39.416Z,5.80
2023-05-28T03:44:06.448Z,5.45
2023-05-28T03:46:33.272Z,6.45
2023-05-28T03:48:59.737Z,6.20
2023-05-28T03:51:28.813Z,6.15
2023-05-28T03:53:55.570Z,6.35
2023-05-28T03:56:22.145Z,6.30
2023-05-28T03:58:48.673Z,6.28
2023-05-28T04:01:15.230Z,6.22
2023-05-28T04:03:42.101Z,7.00
2023-05-28T04:06:09.377Z,6.60
2023-05-28T04:08:35.933Z,7.13
2023-05-28T04:11:02.574Z,6.53
2023-05-28T04:13:29.019Z,6.28
2023-05-28T04:15:55.993Z,6.10
2023-05-28T04:18:22.671Z,6.35
2023-05-28T04:20:49.289Z,6.70
2023-05-28T04:23:15.816Z,6.72
2023-05-28T04:25:42.284Z,5.95
2023-05-28T04:28:08.743Z,6.70
2023-05-28T04:30:35.232Z,6.70
2023-05-28T04:33:01.782Z,7.03
2023-05-28T04:35:28.418Z,6.82
2023-05-28T04:37:54.912Z,5.70
2023-05-28T04:40:22.245Z,7.35
2023-05-28T04:42:48.817Z,6.63
2023-05-28T04:45:15.601Z,6.07
2023-05-28T04:47:42.764Z,6.70
2023-05-28T04:50:10.626Z,6.78
2023-05-28T04:52:37.070Z,7.57
2023-05-28T04:55:07.060Z,6.32
2023-05-28T04:57:33.727Z,6.55
2023-05-28T05:00:00.575Z,6.35
2023-05-28T05:02:27.028Z,6.65
2023-05-28T05:04:53.589Z,4.82
2023-05-28T05:07:21.956Z,7.18
2023-05-28T05:09:48.443Z,6.60
2023-05-28T05:12:14.985Z,6.15
2023-05-28T05:14:41.676Z,6.60
2023-05-28T05:17:09.829Z,6.63
2023-05-28T05:19:36.575Z,6.03
2023-05-28T05:22:05.920Z,6.55
2023-05-28T05:24:32.789Z,6.43
2023-05-28T05:26:59.289Z,8.13
2023-05-28T05:29:26.023Z,7.68
2023-05-28T05:31:52.512Z,7.25
2023-05-28T05:34:19.084Z,6.72
2023-05-28T05:36:45.642Z,6.53
2023-05-28T05:39:12.121Z,6.95
2023-05-28T05:41:39.216Z,8.05
2023-05-28T05:44:05.855Z,7.30
2023-05-28T05:46:32.546Z,6.95
2023-05-28T05:48:59.042Z,7.43
2023-05-28T05:51:25.593Z,6.93
2023-05-28T05:53:52.033Z,8.98
2023-05-28T05:56:18.820Z,7.15
2023-05-28T05:58:45.388Z,7.38
2023-05-28T06:01:12.148Z,6.80
2023-05-28T06:03:38.629Z,7.97
2023-05-28T06:06:05.327Z,8.25
2023-05-28T06:08:31.737Z,8.25
2023-05-28T06:10:58.708Z,7.47
2023-05-28T06:13:25.243Z,7.22
2023-05-28T06:15:51.856Z,7.68
2023-05-28T06:18:18.361Z,6.93
2023-05-28T06:20:44.910Z,7.00
2023-05-28T06:23:11.554Z,6.80
2023-05-28T06:25:38.126Z,7.10
2023-05-28T06:28:04.739Z,6.47
2023-05-28T06:30:31.456Z,6.97
2023-05-28T06:32:57.917Z,7.35
2023-05-28T06:35:24.655Z,7.38
2023-05-28T06:37:51.380Z,7.10
2023-05-28T06:40:17.884Z,7.63
2023-05-28T06:42:44.466Z,7.03
2023-05-28T06:45:12.012Z,8.15
2023-05-28T06:47:38.693Z,7.17
2023-05-28T06:50:06.851Z,7.32
2023-05-28T06:52:33.378Z,7.07
2023-05-28T06:54:59.844Z,7.50
2023-05-28T06:57:26.404Z,6.13
2023-05-28T06:59:52.844Z,6.65
2023-05-28T07:02:19.320Z,7.55
2023-05-28T07:04:46.269Z,6.28
2023-05-28T07:07:12.886Z,6.20
2023-05-28T07:09:39.753Z,6.57
2023-05-28T07:12:06.673Z,7.22
2023-05-28T07:14:33.354Z,7.20
2023-05-28T07:16:59.905Z,6.65
2023-05-28T07:19:26.798Z,7.78
2023-05-28T07:21:53.402Z,6.63
2023-05-28T07:24:19.844Z,5.93
2023-05-28T07:26:46.903Z,6.05
2023-05-28T07:29:19.300Z,5.30
2023-05-28T07:31:46.179Z,6.25
2023-05-28T07:34:12.785Z,5.57
2023-05-28T07:36:39.412Z,6.25
2023-05-28T07:39:06.322Z,6.00
2023-05-28T07:41:32.858Z,6.00
2023-05-28T07:43:59.218Z,5.50
2023-05-28T07:46:26.254Z,6.03
2023-05-28T07:48:52.846Z,4.88
2023-05-28T07:51:19.464Z,5.20
2023-05-28T07:53:46.606Z,4.18
2023-05-28T07:56:14.101Z,5.22
2023-05-28T07:58:46.618Z,5.10
2023-05-28T08:01:13.172Z,4.53
2023-05-28T08:03:39.978Z,4.18
2023-05-28T08:06:07.451Z,4.72
2023-05-28T08:08:33.898Z,4.75
2023-05-28T08:11:00.671Z,10.40
2023-05-28T08:13:27.424Z,4.32
2023-05-28T08:15:54.230Z,4.13
2023-05-28T08:18:20.966Z,4.38
2023-05-28T08:20:49.064Z,4.03
2023-05-28T08:23:15.662Z,4.70
2023-05-28T08:25:42.272Z,4.05
2023-05-28T08:28:10.809Z,3.92
2023-05-28T08:30:37.671Z,4.72
2023-05-28T08:33:04.398Z,4.70
2023-05-28T08:35:31.033Z,3.40
2023-05-28T08:37:57.455Z,4.32
2023-05-28T08:40:24.437Z,3.95
2023-05-28T08:42:50.934Z,4.25
2023-05-28T08:45:17.370Z,3.88
2023-05-28T08:47:44.435Z,4.28
2023-05-28T08:50:14.444Z,3.70
2023-05-28T08:52:42.602Z,4.35
2023-05-28T08:57:35.990Z,4.15
2023-05-28T09:00:09.075Z,4.30
2023-05-28T09:02:35.803Z,5.50
2023-05-28T09:05:02.404Z,4.38
2023-05-28T09:07:28.837Z,3.88
2023-05-28T09:09:57.749Z,3.80
2023-05-28T09:12:25.585Z,3.65
2023-05-28T09:14:54.138Z,3.28
2023-05-28T09:17:40.354Z,4.30
2023-05-28T09:20:11.666Z,3.90
2023-05-28T09:22:38.792Z,4.25
2023-05-28T09:25:07.836Z,4.20
2023-05-28T09:27:34.921Z,4.15
2023-05-28T09:30:08.888Z,4.43
2023-05-28T09:32:36.172Z,4.20
2023-05-28T09:35:06.283Z,4.55
2023-05-28T09:37:32.757Z,4.25
2023-05-28T09:40:10.295Z,4.53
2023-05-28T09:42:43.201Z,5.03
2023-05-28T09:45:10.678Z,4.28
2023-05-28T09:47:44.756Z,4.30
2023-05-28T09:50:12.473Z,3.90
2023-05-28T09:52:41.023Z,3.83
2023-05-28T09:55:08.818Z,5.13
2023-05-28T09:57:36.891Z,4.07
2023-05-28T10:00:14.780Z,4.60
2023-05-28T10:02:54.086Z,4.25
2023-05-28T10:05:21.721Z,4.10
2023-05-28T10:07:53.564Z,5.85
2023-05-28T10:10:21.599Z,5.25
2023-05-28T10:12:50.811Z,4.45
2023-05-28T10:15:18.114Z,4.18
2023-05-28T10:17:44.833Z,4.53
2023-05-28T10:20:12.904Z,4.63
2023-05-28T10:22:40.721Z,4.80
2023-05-28T10:25:09.286Z,5.53
2023-05-28T10:27:38.474Z,6.13
2023-05-28T10:30:05.845Z,5.38
2023-05-28T10:32:45.035Z,5.00
2023-05-28T10:35:12.963Z,5.20
2023-05-28T10:40:11.036Z,5.20
2023-05-28T10:42:43.873Z,5.25
2023-05-28T10:45:11.598Z,5.55
2023-05-28T10:50:15.979Z,5.00
2023-05-28T10:55:29.785Z,4.88
2023-05-28T10:58:08.460Z,5.00
2023-05-28T11:00:41.581Z,4.70
2023-05-28T11:03:08.343Z,4.80
2023-05-28T11:05:36.784Z,4.67
2023-05-28T11:08:04.298Z,4.22
2023-05-28T11:10:32.550Z,3.85
2023-05-28T11:12:59.858Z,4.40
2023-05-28T11:15:26.557Z,5.30
2023-05-28T11:17:53.107Z,5.00
2023-05-28T11:20:21.216Z,4.25
2023-05-28T11:22:48.675Z,4.82
2023-05-28T11:25:15.230Z,4.70
2023-05-28T11:27:42.299Z,4.47
2023-05-28T11:30:12.581Z,4.30
2023-05-28T11:32:39.695Z,3.83
2023-05-28T11:35:07.694Z,4.65
2023-05-28T11:37:35.999Z,4.78
2023-05-28T11:40:11.450Z,4.47
2023-05-28T11:42:40.331Z,4.53
2023-05-28T11:45:07.876Z,4.50
2023-05-28T11:47:35.816Z,4.68
2023-05-28T11:50:09.025Z,3.42
2023-05-28T11:52:35.930Z,4.18
2023-05-28T11:55:03.740Z,4.15
2023-05-28T11:57:34.667Z,4.18
2023-05-28T12:00:21.049Z,3.95
2023-05-28T12:02:51.272Z,4.10
2023-05-28T12:05:18.683Z,3.72
2023-05-28T12:07:52.793Z,3.30
2023-05-28T12:10:23.600Z,3.60
2023-05-28T12:12:52.685Z,3.42
2023-05-28T12:15:23.670Z,4.03
2023-05-28T12:17:55.431Z,4.15
2023-05-28T12:20:21.877Z,4.03
2023-05-28T12:23:20.162Z,4.85
2023-05-28T12:25:48.518Z,3.70
2023-05-28T12:28:20.048Z,3.92
2023-05-28T12:30:54.362Z,3.90
2023-05-28T12:33:22.478Z,4.15
2023-05-28T12:35:49.197Z,4.05
2023-05-28T12:38:15.928Z,4.37
2023-05-28T12:40:42.419Z,4.03
2023-05-28T12:43:08.964Z,4.18
2023-05-28T12:45:35.604Z,3.90
2023-05-28T12:48:02.171Z,3.85
2023-05-28T12:50:28.722Z,4.45
2023-05-28T12:52:55.145Z,3.58
2023-05-28T12:55:21.989Z,3.95
2023-05-28T12:57:48.675Z,4.05
2023-05-28T13:00:16.069Z,3.92
2023-05-28T13:02:42.608Z,4.28
2023-05-28T13:05:09.707Z,4.20
2023-05-28T13:07:36.239Z,4.15
2023-05-28T13:10:05.552Z,4.20
2023-05-28T13:12:32.201Z,4.60
2023-05-28T13:14:58.672Z,3.97
2023-05-28T13:17:25.142Z,3.92
2023-05-28T13:19:51.633Z,4.28
2023-05-28T13:22:18.086Z,4.65
2023-05-28T13:24:47.610Z,4.30
2023-05-28T13:27:15.046Z,3.72
2023-05-28T13:29:41.628Z,4.68
2023-05-28T13:32:09.022Z,4.70
2023-05-28T13:34:35.981Z,4.32
2023-05-28T13:37:02.638Z,4.50
2023-05-28T13:39:29.307Z,4.20
2023-05-28T13:41:55.892Z,4.40
2023-05-28T13:44:22.402Z,4.72
2023-05-28T13:46:49.551Z,4.68
2023-05-28T13:49:16.209Z,5.88
2023-05-28T13:51:44.660Z,4.75
2023-05-28T13:54:13.458Z,4.60
2023-05-28T13:56:41.577Z,4.65
2023-05-28T13:59:08.318Z,4.13
2023-05-28T14:01:34.777Z,4.47
2023-05-28T14:04:01.508Z,4.53
2023-05-28T14:06:28.027Z,5.43
2023-05-28T14:08:54.497Z,4.45
2023-05-28T14:11:20.933Z,4.10
2023-05-28T14:13:47.540Z,4.88
2023-05-28T14:16:13.996Z,4.70
2023-05-28T14:18:40.461Z,4.93
2023-05-28T14:21:08.324Z,4.57
2023-05-28T14:23:34.766Z,4.82
2023-05-28T14:26:01.293Z,4.30
2023-05-28T14:28:27.955Z,4.75
2023-05-28T14:30:54.594Z,4.97
2023-05-28T14:33:21.353Z,5.67
2023-05-28T14:35:47.942Z,5.22
2023-05-28T14:38:14.509Z,4.57
2023-05-28T14:40:40.882Z,4.60
2023-05-28T14:43:07.340Z,4.78
2023-05-28T14:45:33.802Z,4.70
2023-05-28T14:48:01.966Z,4.47
2023-05-28T14:50:28.621Z,4.85
2023-05-28T14:52:55.035Z,4.53
2023-05-28T14:55:21.672Z,4.90
2023-05-28T14:57:48.231Z,4.68
2023-05-28T15:00:15.001Z,4.53
2023-05-28T15:02:42.925Z,4.53
2023-05-28T15:05:10.095Z,5.72
2023-05-28T15:07:36.619Z,7.28
2023-05-28T15:10:03.312Z,7.00
2023-05-28T15:12:30.897Z,6.50
2023-05-28T15:17:23.927Z,5.18
2023-05-28T15:19:51.078Z,4.63
2023-05-28T15:22:17.915Z,5.15
2023-05-28T15:24:44.870Z,4.67
2023-05-28T15:27:11.449Z,5.18
2023-05-28T15:29:40.320Z,5.10
2023-05-28T15:32:08.888Z,4.60
2023-05-28T15:34:35.697Z,4.45
2023-05-28T15:37:02.427Z,4.70
2023-05-28T15:39:29.020Z,5.15
2023-05-28T15:41:56.338Z,5.68
2023-05-28T15:44:23.352Z,5.22
2023-05-28T15:46:49.992Z,4.78
2023-05-28T15:49:16.608Z,4.73
2023-05-28T15:51:42.988Z,5.78
2023-05-28T15:54:09.525Z,6.32
2023-05-28T15:56:36.101Z,6.30
2023-05-28T15:59:02.679Z,5.97
2023-05-28T16:01:31.197Z,5.03
2023-05-28T16:03:58.386Z,5.25
2023-05-28T16:06:24.947Z,5.78
2023-05-28T16:08:51.495Z,5.45
2023-05-28T16:11:19.375Z,4.82
2023-05-28T16:13:46.999Z,5.43
2023-05-28T16:16:17.302Z,5.03
2023-05-28T16:18:44.312Z,4.43
2023-05-28T16:21:11.902Z,4.63
2023-05-28T16:26:06.070Z,5.75
2023-05-28T16:28:33.916Z,4.40
2023-05-28T16:31:00.605Z,5.20
2023-05-28T16:33:27.889Z,5.37
2023-05-28T16:35:54.899Z,6.03
2023-05-28T16:38:21.784Z,8.20
2023-05-28T16:40:48.553Z,5.80
2023-05-28T16:43:16.102Z,4.50
2023-05-28T16:45:43.281Z,4.63
2023-05-28T16:48:11.495Z,5.57
2023-05-28T16:50:38.000Z,4.90
2023-05-28T16:53:04.639Z,4.68
2023-05-28T16:55:31.166Z,4.70
2023-05-28T16:57:57.669Z,5.07
2023-05-28T17:00:24.061Z,4.55
2023-05-28T17:02:51.163Z,4.80
2023-05-28T17:05:22.204Z,4.22
2023-05-28T17:07:49.643Z,5.20
2023-05-28T17:10:16.701Z,5.25
2023-05-28T17:12:43.133Z,5.07
2023-05-28T17:15:09.910Z,4.95
2023-05-28T17:17:37.943Z,4.43
2023-05-28T17:20:11.198Z,4.13
2023-05-28T17:22:39.714Z,4.68
2023-05-28T17:25:09.310Z,4.55
2023-05-28T17:27:36.074Z,4.45
2023-05-28T17:30:02.867Z,4.47
2023-05-28T17:32:31.318Z,4.50
2023-05-28T17:34:58.052Z,4.22
2023-05-28T17:37:24.947Z,4.57
2023-05-28T17:39:54.695Z,4.13
2023-05-28T17:42:21.167Z,4.10
2023-05-28T17:44:52.030Z,3.97
2023-05-28T17:47:21.146Z,3.42
2023-05-28T17:49:52.039Z,3.55
2023-05-28T17:52:19.425Z,3.75
2023-05-28T17:54:46.114Z,3.20
2023-05-28T17:57:13.424Z,2.90
2023-05-28T17:59:39.848Z,2.95
2023-05-28T18:02:06.933Z,3.15
2023-05-28T18:04:36.346Z,3.50
2023-05-28T18:07:04.698Z,2.92
2023-05-28T18:09:31.153Z,3.08
2023-05-28T18:11:57.812Z,2.97
2023-05-28T18:14:25.679Z,3.13
2023-05-28T18:16:52.599Z,2.75
2023-05-28T18:19:23.158Z,3.10
2023-05-28T18:21:50.267Z,2.72
2023-05-28T18:24:19.879Z,2.78
2023-05-28T18:26:47.041Z,2.80
2023-05-28T18:29:13.576Z,3.40
2023-05-28T18:31:40.202Z,2.55
2023-05-28T18:34:09.871Z,2.70
2023-05-28T18:36:36.979Z,2.75
2023-05-28T18:39:04.529Z,2.57
2023-05-28T18:41:36.371Z,2.90
2023-05-28T18:44:02.915Z,3.00
2023-05-28T18:46:29.782Z,2.85
2023-05-28T18:48:56.467Z,3.20
2023-05-28T18:51:23.102Z,2.60
2023-05-28T18:53:54.482Z,2.55
2023-05-28T18:56:21.941Z,2.78
2023-05-28T18:58:48.409Z,3.08
2023-05-28T19:01:15.169Z,2.70
2023-05-28T19:03:41.888Z,3.03
2023-05-28T19:06:08.548Z,2.80
2023-05-28T19:08:36.307Z,3.10
2023-05-28T19:11:03.407Z,2.97
2023-05-28T19:13:33.004Z,3.10
2023-05-28T19:15:59.552Z,2.53
2023-05-28T19:18:26.262Z,2.67
2023-05-28T19:20:53.363Z,3.17
2023-05-28T19:23:20.233Z,3.00
2023-05-28T19:25:46.734Z,2.88
2023-05-28T19:28:13.392Z,2.67
2023-05-28T19:30:43.968Z,3.17
2023-05-28T19:33:10.916Z,3.55
2023-05-28T19:35:37.444Z,2.75
2023-05-28T19:38:04.224Z,3.13
2023-05-28T19:40:31.166Z,3.90
2023-05-28T19:42:57.749Z,3.33
2023-05-28T19:45:24.549Z,3.33
2023-05-28T19:47:51.291Z,3.15
2023-05-28T19:50:18.162Z,3.25
2023-05-28T19:52:47.741Z,2.78
2023-05-28T19:55:14.260Z,2.97
2023-05-28T19:57:43.493Z,3.58
2023-05-28T20:00:13.792Z,3.22
2023-05-28T20:02:40.280Z,3.88
2023-05-28T20:05:07.483Z,3.33
2023-05-28T20:07:34.214Z,3.20
2023-05-28T20:10:00.636Z,3.15
2023-05-28T20:12:27.323Z,3.38
2023-05-28T20:14:53.878Z,2.70
2023-05-28T20:17:20.319Z,2.70
2023-05-28T20:19:46.888Z,3.30
2023-05-28T20:22:13.472Z,3.08
2023-05-28T20:24:40.211Z,3.15
2023-05-28T20:27:07.136Z,3.13
2023-05-28T20:29:37.951Z,2.75
2023-05-28T20:32:06.076Z,3.60
2023-05-28T20:34:32.930Z,3.20
2023-05-28T20:37:01.018Z,3.10
2023-05-28T20:39:29.034Z,3.72
2023-05-28T20:41:56.197Z,3.90
2023-05-28T20:44:23.539Z,3.28
2023-05-28T20:46:51.015Z,3.30
2023-05-28T20:49:17.976Z,3.20
2023-05-28T20:51:45.528Z,3.33
2023-05-28T20:54:12.182Z,3.20
2023-05-28T20:56:40.868Z,3.80
2023-05-28T20:59:08.249Z,3.90
2023-05-28T21:01:35.221Z,3.45
2023-05-28T21:04:01.828Z,3.80
2023-05-28T21:06:30.045Z,4.32
2023-05-28T21:11:25.139Z,4.20
2023-05-28T21:13:53.425Z,3.67
2023-05-28T21:16:19.942Z,4.22
2023-05-28T21:18:46.410Z,3.85
2023-05-28T21:21:12.913Z,4.75
2023-05-28T21:23:39.390Z,4.70
2023-05-28T21:26:06.020Z,4.03
2023-05-28T21:28:32.528Z,4.50
2023-05-28T21:31:01.251Z,4.43
2023-05-28T21:33:28.208Z,5.25
2023-05-28T21:35:56.285Z,4.95
2023-05-28T21:38:24.466Z,4.57
2023-05-28T21:40:51.128Z,3.92
2023-05-28T21:43:17.773Z,4.47
2023-05-28T21:45:46.160Z,4.82
2023-05-28T21:50:43.517Z,5.63
2023-05-28T21:53:13.572Z,5.40
2023-05-28T21:55:41.129Z,4.82
2023-05-28T21:58:07.849Z,5.73
2023-05-28T22:00:34.461Z,4.13
2023-05-28T22:03:01.193Z,4.32
2023-05-28T22:05:27.769Z,4.10
2023-05-28T22:07:54.616Z,4.72
2023-05-28T22:10:21.054Z,5.22
2023-05-28T22:12:48.951Z,4.88
2023-05-28T22:15:15.608Z,4.03
2023-05-28T22:17:42.576Z,4.68
2023-05-28T22:20:11.212Z,3.60
2023-05-28T22:22:39.112Z,3.92
2023-05-28T22:25:07.986Z,4.60
2023-05-28T22:27:35.798Z,4.47
2023-05-28T22:30:04.471Z,3.83
2023-05-28T22:32:31.053Z,4.35
2023-05-28T22:34:57.596Z,4.68
2023-05-28T22:37:24.149Z,4.13
2023-05-28T22:39:50.710Z,3.65
2023-05-28T22:42:17.209Z,4.07
2023-05-28T22:44:43.632Z,3.47
2023-05-28T22:47:10.867Z,3.47
2023-05-28T22:49:37.588Z,3.65
2023-05-28T22:52:04.913Z,3.78
2023-05-28T22:54:32.162Z,3.03
2023-05-28T22:56:58.790Z,3.70
2023-05-28T22:59:25.416Z,3.40
2023-05-28T23:01:52.018Z,3.20
2023-05-28T23:04:18.509Z,3.13
2023-05-28T23:06:45.525Z,3.10
2023-05-28T23:09:12.149Z,2.80
2023-05-28T23:11:41.494Z,2.55
2023-05-28T23:14:12.545Z,2.53
2023-05-28T23:16:40.679Z,3.15
2023-05-28T23:19:07.398Z,2.58
2023-05-28T23:21:33.980Z,2.92
2023-05-28T23:24:01.165Z,2.58
2023-05-28T23:26:27.709Z,2.80
2023-05-28T23:28:54.178Z,2.85
2023-05-28T23:31:20.586Z,2.78
2023-05-28T23:33:47.094Z,3.00
2023-05-28T23:36:13.949Z,3.00
2023-05-28T23:38:41.071Z,2.97
2023-05-28T23:41:07.621Z,2.47
2023-05-28T23:43:34.048Z,2.63
2023-05-28T23:46:00.569Z,3.03
2023-05-28T23:48:27.111Z,3.30
2023-05-28T23:50:53.570Z,2.47
2023-05-28T23:53:19.936Z,3.10
2023-05-28T23:55:46.383Z,2.40
2023-05-28T23:58:12.852Z,2.80
